createdAt,value
2023-03-19T00:01:06.809Z,19.10
2023-03-19T00:08:42.048Z,15.80
2023-03-19T00:16:17.308Z,14.43
2023-03-19T00:23:52.208Z,16.30
2023-03-19T00:46:37.576Z,15.88
2023-03-19T00:54:12.859Z,15.52
2023-03-19T01:01:48.266Z,17.23
2023-03-19T01:09:22.995Z,13.75
2023-03-19T01:16:58.391Z,15.98
2023-03-19T01:24:33.160Z,16.80
2023-03-19T01:32:11.374Z,13.98
2023-03-19T01:39:45.522Z,18.80
2023-03-19T01:47:31.243Z,20.70
2023-03-19T01:55:07.495Z,17.92
2023-03-19T02:02:44.081Z,14.35
2023-03-19T02:10:18.834Z,17.50
2023-03-19T02:17:54.672Z,19.23
2023-03-19T02:25:34.061Z,16.42
2023-03-19T02:33:13.088Z,22.75
2023-03-19T02:40:52.906Z,20.02
2023-03-19T02:48:28.295Z,16.83
2023-03-19T02:56:02.250Z,17.35
2023-03-19T03:03:37.583Z,17.07
2023-03-19T03:11:11.871Z,18.88
2023-03-19T03:18:47.184Z,18.20
2023-03-19T03:26:21.146Z,19.30
2023-03-19T03:33:56.432Z,17.33
2023-03-19T03:41:30.408Z,20.80
2023-03-19T03:49:05.674Z,21.40
2023-03-19T03:56:39.634Z,19.88
2023-03-19T04:04:15.491Z,19.63
2023-03-19T04:11:51.493Z,18.92
2023-03-19T04:19:27.340Z,16.98
2023-03-19T04:27:01.606Z,21.65
2023-03-19T04:34:37.491Z,17.73
2023-03-19T04:42:11.761Z,26.55
2023-03-19T04:49:47.688Z,30.30
2023-03-19T04:57:21.439Z,29.58
2023-03-19T05:04:56.743Z,25.58
2023-03-19T05:12:30.810Z,24.60
2023-03-19T05:20:07.133Z,28.73
2023-03-19T05:27:41.829Z,28.88
2023-03-19T05:35:17.450Z,24.60
2023-03-19T05:42:52.052Z,23.63
2023-03-19T05:50:27.464Z,27.08
2023-03-19T05:58:01.703Z,25.20
2023-03-19T06:05:37.784Z,24.40
2023-03-19T06:21:04.649Z,32.30
2023-03-19T06:28:39.078Z,28.98
2023-03-19T06:36:14.333Z,23.38
2023-03-19T06:43:48.140Z,23.27
2023-03-19T06:51:23.362Z,22.98
2023-03-19T06:58:57.347Z,28.83
2023-03-19T07:06:33.648Z,31.17
2023-03-19T07:14:07.633Z,28.48
2023-03-19T07:21:43.166Z,33.73
2023-03-19T07:29:17.805Z,27.70
2023-03-19T07:36:53.070Z,27.05
2023-03-19T07:44:27.202Z,27.70
2023-03-19T07:59:54.184Z,26.15
2023-03-19T08:07:29.459Z,27.03
2023-03-19T08:15:03.360Z,30.55
2023-03-19T08:22:39.639Z,32.78
2023-03-19T08:30:14.579Z,38.35
2023-03-19T08:37:50.046Z,35.05
2023-03-19T08:45:24.211Z,39.35
2023-03-19T08:52:59.604Z,34.77
2023-03-19T09:00:33.956Z,28.38
2023-03-19T09:16:01.487Z,30.00
2023-03-19T09:23:36.790Z,32.20
2023-03-19T09:31:11.698Z,30.23
2023-03-19T09:38:47.743Z,28.35
2023-03-19T09:46:27.549Z,31.13
2023-03-19T09:54:05.483Z,26.90
2023-03-19T10:01:46.302Z,29.48
2023-03-19T10:09:36.480Z,25.35
2023-03-19T10:17:17.650Z,25.27
2023-03-19T10:24:56.298Z,24.80
2023-03-19T10:32:39.417Z,24.40
2023-03-19T10:40:22.696Z,18.70
2023-03-19T10:47:58.010Z,18.88
2023-03-19T10:55:34.156Z,18.58
2023-03-19T11:03:31.015Z,16.48
2023-03-19T11:11:06.377Z,16.73
2023-03-19T11:18:40.605Z,15.55
2023-03-19T11:26:20.531Z,15.90
2023-03-19T11:34:22.034Z,12.10
2023-03-19T11:42:13.362Z,14.25
2023-03-19T11:49:59.464Z,13.20
2023-03-19T11:57:56.745Z,13.52
2023-03-19T12:05:34.614Z,11.82
2023-03-19T12:13:22.963Z,11.18
2023-03-19T12:21:05.896Z,12.23
2023-03-19T12:36:50.640Z,13.07
2023-03-19T12:44:31.892Z,11.95
2023-03-19T12:52:15.213Z,11.88
2023-03-19T12:59:59.127Z,12.07
2023-03-19T13:07:41.744Z,10.15
2023-03-19T13:15:24.711Z,13.32
2023-03-19T13:31:04.733Z,8.45
2023-03-19T13:38:42.506Z,10.88
2023-03-19T13:46:39.092Z,7.88
2023-03-19T14:02:58.978Z,10.27
2023-03-19T14:10:34.305Z,12.48
2023-03-19T14:18:18.848Z,9.25
2023-03-19T14:26:00.133Z,8.20
2023-03-19T14:33:43.302Z,7.43
2023-03-19T14:41:21.498Z,8.05
2023-03-19T14:57:34.489Z,11.55
2023-03-19T15:05:10.757Z,8.10
2023-03-19T15:13:18.750Z,10.73
2023-03-19T15:20:55.586Z,10.07
2023-03-19T15:28:35.505Z,10.32
2023-03-19T15:36:18.010Z,13.57
2023-03-19T15:43:54.407Z,15.50
2023-03-19T15:59:24.700Z,16.92
2023-03-19T16:07:00.355Z,13.40
2023-03-19T16:14:45.661Z,10.35
2023-03-19T16:22:23.069Z,22.60
2023-03-19T16:30:00.607Z,15.52
2023-03-19T16:37:42.422Z,12.25
2023-03-19T16:45:26.339Z,15.60
2023-03-19T16:53:01.832Z,13.32
2023-03-19T17:00:37.194Z,13.70
2023-03-19T17:08:11.628Z,12.63
2023-03-19T17:15:48.119Z,12.93
2023-03-19T17:23:24.381Z,12.55
2023-03-19T17:31:00.229Z,13.63
2023-03-19T17:38:34.777Z,13.77
2023-03-19T17:46:13.411Z,12.20
2023-03-19T17:53:50.898Z,12.93
2023-03-19T18:01:29.176Z,15.00
2023-03-19T18:09:04.005Z,12.98
2023-03-19T18:16:39.437Z,12.52
2023-03-19T18:24:13.701Z,10.82
2023-03-19T18:31:51.158Z,16.70
2023-03-19T18:39:25.011Z,20.65
2023-03-19T18:47:00.295Z,18.55
2023-03-19T18:54:34.157Z,18.95
2023-03-19T19:02:22.875Z,14.70
2023-03-19T19:09:56.678Z,13.27
2023-03-19T19:17:35.023Z,13.40
2023-03-19T19:25:09.475Z,15.77
2023-03-19T19:48:31.553Z,11.75
2023-03-19T19:56:16.123Z,9.80
2023-03-19T20:03:52.157Z,9.27
2023-03-19T20:11:27.682Z,9.10
2023-03-19T20:19:02.942Z,5.25
2023-03-19T20:26:37.163Z,5.07
2023-03-19T20:34:22.434Z,7.10
2023-03-19T20:41:59.438Z,4.60
2023-03-19T20:49:34.757Z,6.13
2023-03-19T20:57:14.590Z,5.05
2023-03-19T21:04:50.107Z,4.90
2023-03-19T21:12:29.312Z,4.30
2023-03-19T21:20:05.066Z,4.05
2023-03-19T21:27:50.628Z,4.18
2023-03-19T21:35:27.241Z,5.35
2023-03-19T21:43:04.081Z,5.97
2023-03-19T21:50:40.124Z,3.88
2023-03-19T21:58:16.067Z,3.67
2023-03-19T22:05:52.283Z,5.22
2023-03-19T22:13:29.200Z,5.10
2023-03-19T22:21:04.366Z,4.80
2023-03-19T22:28:38.366Z,6.05
2023-03-19T22:36:15.043Z,5.88
2023-03-19T22:43:49.344Z,5.82
2023-03-19T22:51:27.628Z,4.73
2023-03-19T22:59:01.406Z,5.03
2023-03-19T23:06:36.744Z,5.80
2023-03-19T23:14:25.936Z,4.85
2023-03-19T23:22:04.045Z,5.20
2023-03-19T23:29:42.036Z,4.75
2023-03-19T23:37:17.377Z,5.20
2023-03-19T23:44:51.844Z,4.97
2023-03-19T23:52:27.157Z,4.50
